Ride Results

Murrumba Magic (02-05-2004)
Ride distance: 100.0 km

Outcomes - Murrumba Magic (02-05-2004)
Division No. of Entries Retired / DNE Completed Withdrawn Ineligible V/O Percentage Completed
HW 16 - 11 - 1 4 68.75%
MW 41 - 34 2 - 5 82.93%
LW 29 - 22 1 - 6 75.86%
JN 11 - 6 - - 5 54.55%
Totals 97 - 73 3 1 20 75.26%
Results - Murrumba Magic (02-05-2004)
No. Rider Horse Place Time Leg Speeds Total
Km/Hr
H/R bpm
Heavyweight
138 David Horton Camelot Retreat Azada 1 (BC) 6:38:00 16.6, 14.5, 13.5 15.08 36, 42, 47, 60 (Avg:49)
79 Maurice Gray Ashraf Ibn Amir 2 7:22:00 15.6, 12.8, 11.9 13.57 39, 41, 55, 56 (Avg:50)
133 Roger Warner Cassius 3 7:37:00 17.2, 10.9, 11.9 13.13 37, 45, 55, 49 (Avg:49)
104 Olaf Lochtenberg Matta Mia Larry 4 8:00:00 13.3, 12.6, 11.1 12.50 32, 38, 49, 50 (Avg:45)
89 Peter Casey Fred 5 8:07:00 14.8, 11.7, 10.2 12.32 37, 43, 57, 57 (Avg:52)
74 Kristan Kershaw Splendacrest Larabee 6 8:23:00 12.6, 11.7, 11.1 11.93 32, 50, 52, 56 (Avg:52)
105 Niels Lochtenberg Matta Mia Sebastian 7 8:51:00 13.1, 12.7, 7.9 11.30 37, 48, 56, 48 (Avg:50)
100 Bruce Ericksen Rosecliffe Nazeem 8 9:22:00 12.2, 11.9, 7.7 10.68 35, 39, 52, 42 (Avg:44)
65 Andy Hansen Akina Nessah 8 9:22:00 13.1, 10.7, 8.0 10.68 34, 40, 53, 47 (Avg:46)
84 Bruce Moore Diamond Explorer 10 9:32:00 11.9, 10.0, 9.1 10.49 42, 44, 49, 48 (Avg:47)
93 Ivan Sampson Hillbrae Gem 11 9:40:00 11.4, 9.8, 9.4 10.34 45, 43, 50, 52 (Avg:48)
77 David Anderson (DAD) Hillbrae Count Rebellion Lame L3 0:00:00 13.1, 10.4, 7.2 - 40, 46, 59, 52 (Avg:52)
88 David Langan Danny Heart Rate L3 0:00:00 11.7, 10.8, 9.2 - 40, 53, 53, 70 (Avg:58)
96 Ken Burwell High Velosity Lame L2 0:00:00 13.1, 10.8 - 33, 40, 48 (Avg:44)
134 Jack Johnson Sharahd Lateefa Disqualified L2 0:00:00 13.2, 13.6 - 37, 47, 52 (Avg:49)
83 Helen Moore Silver Stin Lame L2 0:00:00 11.9, 10.0 - 35, 37, 51 (Avg:44)
Middleweight
123 Brook Sample Arabell Bronze Magic 1 (BC) 5:18:00 18.7, 19.4, 18.2 18.87 38, 35, 41, 41 (Avg:39)
86 Anne Jones Noondi Sadja 2 5:32:00 18.7, 18.9, 15.9 18.07 32, 44, 58, 46 (Avg:49)
95 Marion Lengronne La Mancha Archduke 3 5:48:00 19.9, 17.0, 14.2 17.24 30, 41, 41, 41 (Avg:41)
142 Michael Taylor Curringa Domino 4 5:51:00 18.3, 15.8, 17.1 17.09 39, 45, 52, 60 (Avg:52)
66 Jeff Trevarthen Die Kinder Kashah 5 6:04:00 18.7, 18.7, 11.9 16.48 37, 40, 53, 58 (Avg:50)
140 Rachel Stephens Wesswood Rock Moss 6 6:08:00 17.3, 15.3, 16.1 16.30 32, 38, 41, 44 (Avg:41)
106 Tony Bateman Sharahd Shanahan 7 6:14:00 16.6, 13.8, 19.4 16.04 35, 40, 53, 57 (Avg:50)
97 Daniele O'Loughlin Pravado 8 6:22:00 15.9, 14.6, 16.9 15.71 34, 41, 46, 46 (Avg:44)
98 Courtney Schloss Just A Gigolo 8 6:22:00 15.9, 14.6, 16.9 15.71 36, 42, 50, 57 (Avg:49)
147 Jennifer Gilbertson Electra BBP Murdoch 10 6:33:00 16.1, 14.1, 15.8 15.27 34, 37, 44, 47 (Avg:42)
55 Penny Toft Bremervale Justice 10 6:33:00 16.1, 14.1, 15.8 15.27 33, 41, 41, 48 (Avg:43)
131 Robyn Edwards Lusitania 12 6:37:00 18.3, 13.8, 13.0 15.11 32, 40, 40, 48 (Avg:42)
125 Robert Sutton Double Royal 13 7:00:00 18.7, 11.1, 14.5 14.29 40, 55, 52, 49 (Avg:52)
85 Sarah Anderson Wimsey Liberty 14 7:02:00 15.5, 13.7, 12.9 14.22 31, 41, 47, 50 (Avg:46)
99 Barbara Macdonald Genet Zac 14 7:02:00 15.5, 13.7, 12.9 14.22 35, 39, 46, 52 (Avg:45)
145 James Sheehan Bramall Jazzmin 14 7:02:00 15.5, 13.7, 12.9 14.22 33, 38, 51, 52 (Avg:47)
78 Steve Gray Talika Fadar 17 7:22:00 15.6, 12.8, 11.9 13.57 39, 45, 52, 47 (Avg:48)
60 Simone Krahnen Tallaroon October Whisper 17 7:22:00 16.5, 14.2, 9.9 13.57 34, 43, 50, 48 (Avg:47)
64 Robin Van der Wegen Shanti 19 7:47:00 14.3, 13.6, 10.1 12.85 38, 38, 48, 45 (Avg:43)
119 Bob Sample Cameo Zinniaa 20 7:48:00 13.4, 12.7, 11.9 12.82 37, 45, 45, 53 (Avg:47)
130 Donna Brooker Hirstglen Romance 21 7:53:00 15.4, 11.5, 10.9 12.68 36, 46, 49, 60 (Avg:51)
116 Raewyn Carter Mt Eerwah Siridion 22 8:00:00 13.9, 12.5, 10.5 12.50 33, 38, 47, 44 (Avg:43)
115 Paul Rogerson Sareign 22 8:00:00 13.9, 12.5, 10.5 12.50 34, 39, 44, 46 (Avg:43)
111 Jackie Swan Longrun Domino 24 8:13:00 13.6, 12.7, 9.7 12.17 33, 45, 43, 50 (Avg:46)
57 Chris Enstram Anabriar Kyandra 25 8:19:00 13.6, 12.3, 9.7 12.02 32, 41, 51, 52 (Avg:48)
58 Libby Nichols Tallaroon Crystal Rose 26 8:22:00 13.1, 12.8, 9.5 11.95 37, 46, 60, 52 (Avg:52)
90 Jillian Crowley Crystalara 27 8:37:00 15.6, 11.0, 8.5 11.61 42, 49, 58, 58 (Avg:55)
118 Deanna Loomes Warr of the Roses 28 8:45:00 13.6, 10.2, 10.3 11.43 37, 44, 51, 50 (Avg:48)
52 Derek Armitage Meltharina Mirage 29 8:49:00 11.7, 11.3, 10.6 11.34 45, 38, 48, 47 (Avg:44)
128 Jacky Clarke Kalkadoon Sequin 30 8:52:00 13.0, 11.0, 9.4 11.28 37, 42, 60, 44 (Avg:48)
62 Kerrie McAuliffe Mistafa 30 8:52:00 13.1, 10.9, 9.4 11.28 36, 46, 60, 55 (Avg:53)
120 Katrina Draegar Raaward Kasmin 32 8:57:00 13.3, 12.8, 7.6 11.17 37, 44, 57, 57 (Avg:52)
108 Carolyn Strahan Maverick 33 9:36:00 13.2, 10.1, 7.8 10.42 36, 46, 55, 60 (Avg:53)
75 Catrina Howlett Ashwind 34 9:49:00 13.1, 10.4, 7.2 10.19 41, 46, 55, 56 (Avg:52)
63 Gayle Holmes Diamond Centrefold Heart Rate L3 0:00:00 14.3, 13.6, 10.1 - 40, 45, 59, 62 (Avg:55)
139 Ron Haigh Kynnum Park Sadia Widthdrawn L2 0:00:00 - - 36, 51, 58 (Avg:54)
112 Fred Henry Allamir Silver Shadow Heart Rate L2 0:00:00 16.1, 15.1 - 36, 40, 62 (Avg:51)
144 Ondy Laws-King Tubbarubba Cheval Widthdrawn L2 0:00:00 - - 36, 44, 44 (Avg:44)
102 Linda Meredith Alnotarj Kaleem Metabolics moderate L2 0:00:00 20.1, 17.5 - 33, 38, 46 (Avg:42)
110 Judy Battams Marja Shyella Desert Dream Lame L1 0:00:00 20.1 - 35, 37 (Avg:37)
143 Sally Griffin Jualane Park Apollo Lame L1 0:00:00 15.5 - 33, 48 (Avg:48)
Lightweight
141 Jennifer Annetts Kem-Lea Pk Kalique 1 (BC) 5:50:00 18.7, 15.5, 17.3 17.14 32, 38, 44, 51 (Avg:44)
70 Jocelyn Barnes Dandaloo Nazika 1 5:50:00 17.1, 17.0, 17.3 17.14 40, 40, 43, 52 (Avg:45)
132 Lauren Edwards Meltharina Magic 3 6:37:00 18.3, 13.8, 13.0 15.11 37, 39, 49, 51 (Avg:46)
136 Tylana Woodward Tallow Wood Sa Hassan 4 7:05:00 17.2, 13.2, 11.7 14.12 40, 40, 59, 57 (Avg:52)
82 Julie Fletcher Hillbrae Garnet 5 7:53:00 15.4, 11.5, 10.9 12.68 35, 38, 51, 58 (Avg:49)
67 Sven Gobius Kalkadoon Vagabond 6 8:07:00 13.2, 12.9, 10.3 12.32 35, 40, 53, 50 (Avg:47)
68 Jen Weise Rodborough Rezon 6 8:07:00 13.2, 12.9, 10.3 12.32 31, 39, 45, 49 (Avg:44)
53 Melissa Holzmann Jendari Mandate 8 8:19:00 13.6, 12.3, 9.7 12.02 38, 45, 59, 57 (Avg:53)
81 Molly Hall Esau 9 8:23:00 12.5, 11.7, 11.2 11.93 44, 46, 53, 54 (Avg:51)
113 Belinda Quirk Riversleigh Rage 9 8:23:00 13.1, 12.8, 9.4 11.93 38, 44, 48, 51 (Avg:47)
56 Cathy Herve Hilbrae Maxine 11 8:36:00 13.6, 12.2, 8.8 11.63 32, 39, 46, 50 (Avg:45)
114 Della Weier Shahtaan 12 8:37:00 15.6, 11.0, 8.5 11.61 33, 41, 42, 41 (Avg:41)
51 Charmaine Bond El Sarem Zanita 13 8:49:00 11.7, 11.3, 10.6 11.34 33, 50, 45, 46 (Avg:47)
103 Belinda Gray Chironic Milky Way 14 8:51:00 13.2, 11.9, 8.4 11.30 40, 47, 53, 57 (Avg:52)
91 Amanda Weier Ashraf Sparkling Prince 15 8:53:00 12.9, 10.1, 10.7 11.26 39, 45, 55, 51 (Avg:50)
126 Ashlee Shafer Kelkette Park Fedor 16 8:57:00 13.3, 12.8, 7.6 11.17 39, 42, 47, 44 (Avg:44)
121 Anita Lingard Uvinia Blue Son 17 9:07:00 11.9, 10.3, 10.5 10.97 38, 49, 55, 51 (Avg:51)
127 Linda Yates Brookleigh Casper 17 9:07:00 11.9, 10.3, 10.5 10.97 39, 41, 44, 55 (Avg:46)
101 Lynn Ericksen Chazar Queen of Hearts 19 9:22:00 12.2, 11.9, 7.7 10.68 49, 41, 54, 51 (Avg:48)
54 Jeremy Robertson Sharahd Balladier 20 9:30:00 11.7, 10.4, 9.0 10.53 35, 40, 49, 45 (Avg:44)
137 Melanie Mundt Eskdale Espirique 21 9:32:00 11.9, 10.0, 9.1 10.49 40, 38, 48, 46 (Avg:44)
94 Miacala Gurtner Hilbrae LC 22 9:40:00 11.4, 9.8, 9.4 10.34 32, 39, 43, 47 (Avg:43)
87 Verona Larkin Rebroff Killara Lame L3 0:00:00 11.7, 11.0, 9.0 - 31, 43, 47, 49 (Avg:46)
61 Sam Marquis Talika Fazahma Bint Himar Heart Rate L3 0:00:00 20.1, 17.5, 14.1 - 40, 42, 44, 61 (Avg:49)
135 Anais Arrighi Sharahd Chinan Lame L2 0:00:00 13.2, 13.1 - 28, 34, 40 (Avg:37)
129 Rachel Kuns Kelkette Park Finesse Heart Rate L2 0:00:00 11.7, 11.0 - 29, 40, 65 (Avg:52)
117 Jeanna Maher Red Gum Trinket Lame L2 0:00:00 17.3, 15.3 - 39, 42, 49 (Avg:45)
109 Christine Plucknett Montview Solitare Heart Rate L2 0:00:00 15.4, 10.8 - 41, 46, 66 (Avg:56)
69 Cassie Saunders Niarla Silver Alite Widthdrawn L1 0:00:00 - - 34, 39 (Avg:39)
Junior
107 Chelsea Moore Thara's Dream 1 5:34:00 20.1, 17.5, 15.6 17.96 34, 34, 45, 54 (Avg:44)
59 Erin Krahnen Narla 2 7:22:00 16.5, 14.2, 9.9 13.57 36, 43, 55, 58 (Avg:52)
124 Saasha Grogan Moondarra Cimeron 3 (BC) 7:48:00 13.3, 12.8, 11.9 12.82 42, 47, 53, 50 (Avg:50)
146 Brooke Warner Norma Jean 4 8:19:00 13.2, 12.6, 9.7 12.02 38, 36, 51, 55 (Avg:47)
72 Bridget Nottle Splendacrest Kamonflage 5 8:22:00 12.6, 11.7, 11.2 11.95 38, 43, 52, 57 (Avg:50)
80 Tasha Jeremy Tarwarri Sharhim 6 8:23:00 12.5, 11.8, 11.1 11.93 38, 40, 47, 43 (Avg:43)
122 Laura Axsentieff Meltharina Mabran Lame L3 0:00:00 11.9, 8.0, 18.4 - 38, 52, 44, 45 (Avg:47)
73 Emma Daley Dante Symphony Lame L2 0:00:00 12.6, 13.9 - 40, 41, 45 (Avg:43)
92 Terrence Weier Thalara Lame L2 0:00:00 12.9, 10.1 - 41, 44, 49 (Avg:46)
76 Terri Anderson Tobinlee Ishmale Lame L1 0:00:00 20.1 - 27, 46 (Avg:46)
71 Angela Hawks Kalkadoon Vashti Lame L1 0:00:00 14.4 - 34, 40 (Avg:40)